createdAt,value
2019-05-23T00:01:14.069Z,99.90
2019-05-23T00:04:01.580Z,99.90
2019-05-23T00:06:31.855Z,99.90
2019-05-23T00:09:00.757Z,99.90
2019-05-23T00:11:40.570Z,99.90
2019-05-23T00:14:20.061Z,99.90
2019-05-23T00:16:49.662Z,99.90
2019-05-23T00:19:18.911Z,99.90
2019-05-23T00:21:49.128Z,99.90
2019-05-23T00:24:19.837Z,99.90
2019-05-23T00:26:48.968Z,99.90
2019-05-23T00:29:17.630Z,99.90
2019-05-23T00:31:48.100Z,99.90
2019-05-23T00:34:18.295Z,99.90
2019-05-23T00:36:47.154Z,99.90
2019-05-23T00:39:16.866Z,99.90
2019-05-23T00:41:46.029Z,99.90
2019-05-23T00:44:15.915Z,99.90
2019-05-23T00:46:44.871Z,99.90
2019-05-23T00:49:16.070Z,99.90
2019-05-23T00:51:46.461Z,99.90
2019-05-23T00:54:16.821Z,99.90
2019-05-23T00:56:45.635Z,99.90
2019-05-23T00:59:26.706Z,99.90
2019-05-23T01:01:46.591Z,99.90
2019-05-23T01:04:16.782Z,99.90
2019-05-23T01:06:45.351Z,99.90
2019-05-23T01:09:14.679Z,99.90
2019-05-23T01:11:44.472Z,99.90
2019-05-23T01:14:13.969Z,99.90
2019-05-23T01:16:42.538Z,99.90
2019-05-23T01:19:13.047Z,99.90
2019-05-23T01:21:59.405Z,99.90
2019-05-23T01:24:35.930Z,99.90
2019-05-23T01:27:06.005Z,99.90
2019-05-23T01:29:40.970Z,99.90
2019-05-23T01:32:17.993Z,99.90
2019-05-23T01:34:47.706Z,99.90
2019-05-23T01:37:19.258Z,99.90
2019-05-23T01:39:48.535Z,99.90
2019-05-23T01:42:17.581Z,99.90
2019-05-23T01:44:47.491Z,99.90
2019-05-23T01:47:17.100Z,99.90
2019-05-23T01:49:47.221Z,99.90
2019-05-23T01:52:17.794Z,99.90
2019-05-23T01:54:47.981Z,99.90
2019-05-23T01:57:17.209Z,99.90
2019-05-23T01:59:45.895Z,99.90
2019-05-23T02:02:16.126Z,99.90
2019-05-23T02:04:45.191Z,99.90
2019-05-23T02:07:14.553Z,99.90
2019-05-23T02:09:43.234Z,99.90
2019-05-23T02:12:12.426Z,99.90
2019-05-23T02:14:43.441Z,99.90
2019-05-23T02:17:13.845Z,99.90
2019-05-23T02:19:43.877Z,99.90
2019-05-23T02:22:13.265Z,99.90
2019-05-23T02:24:44.238Z,99.90
2019-05-23T02:27:12.954Z,99.90
2019-05-23T02:29:43.648Z,99.90
2019-05-23T02:32:12.809Z,99.90
2019-05-23T02:34:41.624Z,99.90
2019-05-23T02:37:12.365Z,99.90
2019-05-23T02:39:49.403Z,99.90
2019-05-23T02:42:26.387Z,99.90
2019-05-23T02:44:56.709Z,99.90
2019-05-23T02:47:29.644Z,99.90
2019-05-23T02:49:59.581Z,99.90
2019-05-23T02:52:38.671Z,99.90
2019-05-23T02:55:10.301Z,99.90
2019-05-23T02:57:40.579Z,99.90
2019-05-23T03:00:54.134Z,99.90
2019-05-23T03:03:24.347Z,99.90
2019-05-23T03:05:53.112Z,99.90
2019-05-23T03:08:23.786Z,99.90
2019-05-23T03:10:58.541Z,99.90
2019-05-23T03:13:30.160Z,99.90
2019-05-23T03:16:00.480Z,99.90
2019-05-23T03:18:34.338Z,99.90
2019-05-23T03:21:01.778Z,99.90
2019-05-23T03:23:32.919Z,99.90
2019-05-23T03:26:34.844Z,99.90
2019-05-23T03:29:04.742Z,99.90
2019-05-23T03:31:39.023Z,99.90
2019-05-23T03:34:09.637Z,99.90
2019-05-23T03:36:39.198Z,99.90
2019-05-23T03:39:09.387Z,99.90
2019-05-23T03:41:38.718Z,99.90
2019-05-23T03:44:09.483Z,99.90
2019-05-23T03:46:39.787Z,99.90
2019-05-23T03:49:11.552Z,99.90
2019-05-23T03:51:41.172Z,99.90
2019-05-23T03:54:11.587Z,99.90
2019-05-23T03:56:40.480Z,99.90
2019-05-23T03:59:09.978Z,99.90
2019-05-23T04:01:47.546Z,99.90
2019-05-23T04:04:10.381Z,99.90
2019-05-23T04:06:39.573Z,99.90
2019-05-23T04:09:08.114Z,99.90
2019-05-23T04:11:37.319Z,99.90
2019-05-23T04:14:07.822Z,99.90
2019-05-23T04:16:36.667Z,99.90
2019-05-23T04:19:05.293Z,99.90
2019-05-23T04:21:33.922Z,99.90
2019-05-23T04:24:02.790Z,99.90
2019-05-23T04:26:31.411Z,99.90
2019-05-23T04:29:01.222Z,99.90
2019-05-23T04:31:30.392Z,99.90
2019-05-23T04:33:59.769Z,99.90
2019-05-23T04:36:28.434Z,99.90
2019-05-23T04:38:57.452Z,99.90
2019-05-23T04:41:26.041Z,99.90
2019-05-23T04:43:54.665Z,99.90
2019-05-23T04:46:23.293Z,99.90
2019-05-23T04:48:53.474Z,99.90
2019-05-23T04:51:23.918Z,99.90
2019-05-23T04:53:52.496Z,99.90
2019-05-23T04:56:21.231Z,99.90
2019-05-23T04:58:51.134Z,99.90
2019-05-23T05:01:21.260Z,99.90
2019-05-23T05:03:50.943Z,99.90
2019-05-23T05:06:20.435Z,99.90
2019-05-23T05:08:49.652Z,99.90
2019-05-23T05:11:18.657Z,99.90
2019-05-23T05:13:47.225Z,99.90
2019-05-23T05:16:16.638Z,99.90
2019-05-23T05:18:45.197Z,99.90
2019-05-23T05:21:14.361Z,99.90
2019-05-23T05:23:43.259Z,99.90
2019-05-23T05:26:17.718Z,99.90
2019-05-23T05:28:46.839Z,99.90
2019-05-23T05:31:15.630Z,99.90
2019-05-23T05:33:44.472Z,99.90
2019-05-23T05:36:13.471Z,99.90
2019-05-23T05:38:43.614Z,99.90
2019-05-23T05:41:12.868Z,99.90
2019-05-23T05:43:41.945Z,99.90
2019-05-23T05:46:10.635Z,99.90
2019-05-23T05:48:40.110Z,99.90
2019-05-23T05:51:09.373Z,99.90
2019-05-23T05:53:38.467Z,99.90
2019-05-23T05:56:07.406Z,99.90
2019-05-23T05:58:36.058Z,99.90
2019-05-23T06:01:06.539Z,99.90
2019-05-23T06:03:35.100Z,99.90
2019-05-23T06:06:08.206Z,99.90
2019-05-23T06:08:38.442Z,99.90
2019-05-23T06:11:07.075Z,99.90
2019-05-23T06:13:35.652Z,99.90
2019-05-23T06:16:04.456Z,99.90
2019-05-23T06:18:33.357Z,99.90
2019-05-23T06:21:02.545Z,99.90
2019-05-23T06:23:31.432Z,99.90
2019-05-23T06:26:00.550Z,99.90
2019-05-23T06:28:30.696Z,99.90
2019-05-23T06:31:00.847Z,99.90
2019-05-23T06:33:30.719Z,99.90
2019-05-23T06:36:00.229Z,99.90
2019-05-23T06:38:30.187Z,99.90
2019-05-23T06:41:00.082Z,99.90
2019-05-23T06:43:28.916Z,99.90
2019-05-23T06:45:58.462Z,99.90
2019-05-23T06:48:27.439Z,99.90
2019-05-23T06:50:56.166Z,99.90
2019-05-23T06:53:24.729Z,99.90
2019-05-23T06:55:53.397Z,99.90
2019-05-23T06:58:22.590Z,99.90
2019-05-23T07:00:52.155Z,99.90
2019-05-23T07:03:20.751Z,99.90
2019-05-23T07:05:49.488Z,99.90
2019-05-23T07:08:19.985Z,99.90
2019-05-23T07:10:48.627Z,99.90
2019-05-23T07:13:17.665Z,99.90
2019-05-23T07:15:46.500Z,99.90
2019-05-23T07:18:15.948Z,99.90
2019-05-23T07:20:45.176Z,99.90
2019-05-23T07:23:14.221Z,99.90
2019-05-23T07:25:42.847Z,99.90
2019-05-23T07:28:11.554Z,99.90
2019-05-23T07:30:40.119Z,99.90
2019-05-23T07:33:09.721Z,99.90
2019-05-23T07:35:38.440Z,99.90
2019-05-23T07:38:07.344Z,99.90
2019-05-23T07:40:36.432Z,99.90
2019-05-23T07:43:06.797Z,99.90
2019-05-23T07:45:40.441Z,99.90
2019-05-23T07:48:09.371Z,99.90
2019-05-23T07:50:38.059Z,99.90
2019-05-23T07:53:07.843Z,99.90
2019-05-23T07:55:38.096Z,99.90
2019-05-23T07:58:07.442Z,99.90
2019-05-23T08:00:44.762Z,99.90
2019-05-23T08:03:16.550Z,99.90
2019-05-23T08:05:46.131Z,99.90
2019-05-23T08:08:14.991Z,99.90
2019-05-23T08:10:43.891Z,99.90
2019-05-23T08:13:12.518Z,99.90
2019-05-23T08:15:41.367Z,99.90
2019-05-23T08:18:10.565Z,99.90
2019-05-23T08:20:39.580Z,99.90
2019-05-23T08:23:08.607Z,99.90
2019-05-23T08:25:37.558Z,99.90
2019-05-23T08:28:06.977Z,99.90
2019-05-23T08:30:35.946Z,99.90
2019-05-23T08:33:06.586Z,99.90
2019-05-23T08:35:35.741Z,99.90
2019-05-23T08:38:05.407Z,99.90
2019-05-23T08:40:34.337Z,99.90
2019-05-23T08:43:03.912Z,99.90
2019-05-23T08:45:33.100Z,99.90
2019-05-23T08:48:02.069Z,99.90
2019-05-23T08:50:31.266Z,99.90
2019-05-23T08:52:59.828Z,99.90
2019-05-23T08:55:29.324Z,99.90
2019-05-23T08:57:59.002Z,99.90
2019-05-23T09:00:29.301Z,99.90
2019-05-23T09:02:59.327Z,99.90
2019-05-23T09:05:33.210Z,99.90
2019-05-23T09:08:01.979Z,99.90
2019-05-23T09:10:31.137Z,99.90
2019-05-23T09:13:00.036Z,99.90
2019-05-23T09:15:28.614Z,99.90
2019-05-23T09:17:57.396Z,99.90
2019-05-23T09:20:26.534Z,99.90
2019-05-23T09:22:55.260Z,99.90
2019-05-23T09:25:23.817Z,99.90
2019-05-23T09:27:53.474Z,99.90
2019-05-23T09:30:23.818Z,99.90
2019-05-23T09:32:52.516Z,99.90
2019-05-23T09:35:22.390Z,99.90
2019-05-23T09:37:51.274Z,99.90
2019-05-23T09:40:20.660Z,99.90
2019-05-23T09:42:49.197Z,99.90
2019-05-23T09:45:18.518Z,99.90
2019-05-23T09:47:50.971Z,99.90
2019-05-23T09:50:19.499Z,99.90
2019-05-23T09:52:48.048Z,99.90
2019-05-23T09:55:17.451Z,99.90
2019-05-23T09:57:45.968Z,99.90
2019-05-23T10:00:17.351Z,99.90
2019-05-23T10:02:45.878Z,99.90
2019-05-23T10:05:14.895Z,99.90
2019-05-23T10:07:43.601Z,99.90
2019-05-23T10:10:13.013Z,99.90
2019-05-23T10:12:41.826Z,99.90
2019-05-23T10:15:29.531Z,99.90
2019-05-23T10:18:00.750Z,99.90
2019-05-23T10:20:31.747Z,99.90
2019-05-23T10:23:00.646Z,99.90
2019-05-23T10:25:29.297Z,99.90
2019-05-23T10:27:58.033Z,99.90
2019-05-23T10:30:26.760Z,99.90
2019-05-23T10:32:55.387Z,99.90
2019-05-23T10:35:24.847Z,99.90
2019-05-23T10:37:53.553Z,99.90
2019-05-23T10:40:22.768Z,99.90
2019-05-23T10:42:51.451Z,99.90
2019-05-23T10:45:20.649Z,99.90
2019-05-23T10:47:49.191Z,99.90
2019-05-23T10:50:18.013Z,99.90
2019-05-23T10:52:46.648Z,99.90
2019-05-23T10:55:16.055Z,99.90
2019-05-23T10:57:44.803Z,99.90
2019-05-23T11:00:15.534Z,99.90
2019-05-23T11:02:44.328Z,99.90
2019-05-23T11:05:14.250Z,99.90
2019-05-23T11:07:43.821Z,99.90
2019-05-23T11:10:12.992Z,99.90
2019-05-23T11:12:42.421Z,99.90
2019-05-23T11:15:12.819Z,99.90
2019-05-23T11:17:41.584Z,99.90
2019-05-23T11:20:12.181Z,99.90
2019-05-23T11:22:42.056Z,99.90
2019-05-23T11:25:15.137Z,99.90
2019-05-23T11:27:44.095Z,99.90
2019-05-23T11:30:19.289Z,99.90
2019-05-23T11:32:48.218Z,99.90
2019-05-23T11:35:17.140Z,99.90
2019-05-23T11:37:45.734Z,99.90
2019-05-23T11:40:14.846Z,99.90
2019-05-23T11:42:43.418Z,96.40
2019-05-23T11:45:12.579Z,98.80
2019-05-23T11:47:41.219Z,92.10
2019-05-23T11:50:10.144Z,93.90
2019-05-23T11:52:38.815Z,95.10
2019-05-23T11:55:08.773Z,95.80
2019-05-23T11:57:38.436Z,91.70
2019-05-23T12:00:10.515Z,93.70
2019-05-23T12:02:41.083Z,90.50
2019-05-23T12:05:11.856Z,85.80
2019-05-23T12:07:40.634Z,90.60
2019-05-23T12:10:10.282Z,90.70
2019-05-23T12:12:38.848Z,90.00
2019-05-23T12:15:11.950Z,92.10
2019-05-23T12:17:41.283Z,90.20
2019-05-23T12:20:10.808Z,83.00
2019-05-23T12:22:39.913Z,91.20
2019-05-23T12:25:22.141Z,78.90
2019-05-23T12:27:41.334Z,77.20
2019-05-23T12:30:12.995Z,79.30
2019-05-23T12:32:41.589Z,74.20
2019-05-23T12:35:11.936Z,73.50
2019-05-23T12:37:40.973Z,76.20
2019-05-23T12:40:12.219Z,67.10
2019-05-23T12:42:40.905Z,69.60
2019-05-23T12:45:10.989Z,64.00
2019-05-23T12:47:59.762Z,62.40
2019-05-23T12:50:36.553Z,65.00
2019-05-23T12:53:05.857Z,66.20
2019-05-23T12:55:34.666Z,65.20
2019-05-23T12:58:03.404Z,65.00
2019-05-23T13:00:42.736Z,65.50
2019-05-23T13:03:13.532Z,65.60
2019-05-23T13:05:42.173Z,63.40
2019-05-23T13:08:10.929Z,67.20
2019-05-23T13:10:39.869Z,63.50
2019-05-23T13:13:08.717Z,58.00
2019-05-23T13:15:37.675Z,59.00
2019-05-23T13:18:06.329Z,62.40
2019-05-23T13:20:35.061Z,59.10
2019-05-23T13:23:03.821Z,58.70
2019-05-23T13:25:32.508Z,61.00
2019-05-23T13:28:01.249Z,58.90
2019-05-23T13:30:30.289Z,55.50
2019-05-23T13:33:03.210Z,55.00
2019-05-23T13:35:30.902Z,54.50
2019-05-23T13:37:59.733Z,55.50
2019-05-23T13:40:28.513Z,58.40
2019-05-23T13:42:57.435Z,57.30
2019-05-23T13:45:26.348Z,57.40
2019-05-23T13:47:54.901Z,55.30
2019-05-23T13:50:23.600Z,53.70
2019-05-23T13:52:52.196Z,54.90
2019-05-23T13:55:20.907Z,55.80
2019-05-23T13:57:49.573Z,57.00
2019-05-23T14:00:20.804Z,53.00
2019-05-23T14:02:49.680Z,55.70
2019-05-23T14:05:19.304Z,54.50
2019-05-23T14:07:48.170Z,56.40
2019-05-23T14:10:17.503Z,53.50
2019-05-23T14:12:46.660Z,53.80
2019-05-23T14:15:17.197Z,52.40
2019-05-23T14:17:46.933Z,52.60
2019-05-23T14:20:16.688Z,52.20
2019-05-23T14:22:47.727Z,54.60
2019-05-23T14:25:17.027Z,53.60
2019-05-23T14:27:47.270Z,52.40
2019-05-23T14:30:30.125Z,50.60
2019-05-23T14:33:17.457Z,49.90
2019-05-23T14:35:47.947Z,52.00
2019-05-23T14:38:30.262Z,49.40
2019-05-23T14:40:48.507Z,51.80
2019-05-23T14:43:25.521Z,52.40
2019-05-23T14:45:58.624Z,53.30
2019-05-23T14:48:45.222Z,52.90
2019-05-23T14:51:31.555Z,48.20
2019-05-23T14:54:13.409Z,51.50
2019-05-23T14:56:42.267Z,54.50
2019-05-23T14:59:11.050Z,54.90
2019-05-23T15:01:40.241Z,52.30
2019-05-23T15:04:09.241Z,51.90
2019-05-23T15:06:38.295Z,50.80
2019-05-23T15:09:10.016Z,49.50
2019-05-23T15:11:39.127Z,50.30
2019-05-23T15:14:08.152Z,52.30
2019-05-23T15:16:36.812Z,52.00
2019-05-23T15:19:05.874Z,52.70
2019-05-23T15:21:34.535Z,51.70
2019-05-23T15:24:03.228Z,53.10
2019-05-23T15:26:32.438Z,53.60
2019-05-23T15:29:01.013Z,53.80
2019-05-23T15:31:29.706Z,53.90
2019-05-23T15:33:58.308Z,52.70
2019-05-23T15:36:26.869Z,50.30
2019-05-23T15:39:08.761Z,53.20
2019-05-23T15:41:25.860Z,52.80
2019-05-23T15:43:54.673Z,54.30
2019-05-23T15:46:23.239Z,55.10
2019-05-23T15:48:51.883Z,55.60
2019-05-23T15:51:22.158Z,51.80
2019-05-23T15:53:52.488Z,50.60
2019-05-23T15:56:28.193Z,52.10
2019-05-23T15:59:11.360Z,51.40
2019-05-23T16:01:47.611Z,53.20
2019-05-23T16:04:22.972Z,53.20
2019-05-23T16:06:51.702Z,56.20
2019-05-23T16:09:29.463Z,57.70
2019-05-23T16:11:51.544Z,54.60
2019-05-23T16:14:20.954Z,55.30
2019-05-23T16:16:49.961Z,56.30
2019-05-23T16:19:18.521Z,57.70
2019-05-23T16:21:47.092Z,59.20
2019-05-23T16:24:15.846Z,57.70
2019-05-23T16:26:45.022Z,56.20
2019-05-23T16:29:15.048Z,56.70
2019-05-23T16:31:44.369Z,56.90
2019-05-23T16:34:12.993Z,57.70
2019-05-23T16:36:41.593Z,60.90
2019-05-23T16:39:10.179Z,58.80
2019-05-23T16:41:38.926Z,61.30
2019-05-23T16:44:07.641Z,66.90
2019-05-23T16:46:36.201Z,66.90
2019-05-23T16:49:05.130Z,70.10
2019-05-23T16:51:33.765Z,69.40
2019-05-23T16:54:02.826Z,75.30
2019-05-23T16:56:35.829Z,76.10
2019-05-23T16:59:14.934Z,85.50
2019-05-23T17:02:06.296Z,83.80
2019-05-23T17:05:08.402Z,91.10
2019-05-23T17:07:29.843Z,89.40
2019-05-23T17:10:08.438Z,92.70
2019-05-23T17:12:37.645Z,94.60
2019-05-23T17:15:09.830Z,94.60
2019-05-23T17:18:00.830Z,95.10
2019-05-23T17:20:19.698Z,96.60
2019-05-23T17:22:56.083Z,98.20
2019-05-23T17:25:34.646Z,99.60
2019-05-23T17:28:07.504Z,99.90
2019-05-23T17:30:38.030Z,99.90
2019-05-23T17:33:08.561Z,99.90
2019-05-23T17:35:37.059Z,99.90
2019-05-23T17:38:05.870Z,99.90
2019-05-23T17:40:34.762Z,99.90
2019-05-23T17:43:03.530Z,99.90
2019-05-23T17:45:32.647Z,99.90
2019-05-23T17:48:01.205Z,99.90
2019-05-23T17:50:30.085Z,99.90
2019-05-23T17:52:58.735Z,99.90
2019-05-23T17:55:28.134Z,99.90
2019-05-23T17:57:57.085Z,99.90
2019-05-23T18:00:27.350Z,99.90
2019-05-23T18:02:56.398Z,99.90
2019-05-23T18:05:25.120Z,99.90
2019-05-23T18:07:53.889Z,99.90
2019-05-23T18:10:23.090Z,99.90
2019-05-23T18:12:52.359Z,99.90
2019-05-23T18:15:21.650Z,99.90
2019-05-23T18:17:50.550Z,99.90
2019-05-23T18:20:19.248Z,99.90
2019-05-23T18:22:47.831Z,99.90
2019-05-23T18:25:18.280Z,99.90
2019-05-23T18:27:47.367Z,99.90
2019-05-23T18:30:34.437Z,99.90
2019-05-23T18:33:03.916Z,99.90
2019-05-23T18:35:33.212Z,99.90
2019-05-23T18:38:02.563Z,99.90
2019-05-23T18:40:31.250Z,99.90
2019-05-23T18:42:59.841Z,99.90
2019-05-23T18:45:30.054Z,99.90
2019-05-23T18:47:58.799Z,99.90
2019-05-23T18:50:29.015Z,99.90
2019-05-23T18:52:58.278Z,99.90
2019-05-23T18:55:27.933Z,99.90
2019-05-23T18:57:56.720Z,99.90
2019-05-23T19:00:53.215Z,99.90
2019-05-23T19:03:22.623Z,99.90
2019-05-23T19:05:51.829Z,99.90
2019-05-23T19:08:21.023Z,99.90
2019-05-23T19:10:50.427Z,99.90
2019-05-23T19:13:20.381Z,99.90
2019-05-23T19:15:49.363Z,99.90
2019-05-23T19:18:18.523Z,99.90
2019-05-23T19:20:47.328Z,99.90
2019-05-23T19:23:16.330Z,99.90
2019-05-23T19:25:45.820Z,99.90
2019-05-23T19:28:14.531Z,99.90
2019-05-23T19:30:44.273Z,99.90
2019-05-23T19:33:13.917Z,99.90
2019-05-23T19:35:42.800Z,99.90
2019-05-23T19:38:11.878Z,99.90
2019-05-23T19:40:40.739Z,99.90
2019-05-23T19:43:10.597Z,99.90
2019-05-23T19:45:39.424Z,99.90
2019-05-23T19:48:08.151Z,99.90
2019-05-23T19:50:38.652Z,99.90
2019-05-23T19:53:07.518Z,99.90
2019-05-23T19:55:39.870Z,99.90
2019-05-23T19:58:08.058Z,99.90
2019-05-23T20:00:37.642Z,99.90
2019-05-23T20:03:07.140Z,99.90
2019-05-23T20:05:40.360Z,99.90
2019-05-23T20:08:09.998Z,99.90
2019-05-23T20:10:39.513Z,99.90
2019-05-23T20:13:08.210Z,99.90
2019-05-23T20:15:37.200Z,99.90
2019-05-23T20:18:06.896Z,99.90
2019-05-23T20:20:37.160Z,99.90
2019-05-23T20:23:06.326Z,99.90
2019-05-23T20:25:35.501Z,99.90
2019-05-23T20:28:04.915Z,99.90
2019-05-23T20:30:45.856Z,99.90
2019-05-23T20:33:15.210Z,99.90
2019-05-23T20:35:43.926Z,99.90
2019-05-23T20:38:12.669Z,99.90
2019-05-23T20:40:41.474Z,99.90
2019-05-23T20:43:10.543Z,99.90
2019-05-23T20:45:39.521Z,99.90
2019-05-23T20:48:08.621Z,99.90
2019-05-23T20:50:37.334Z,99.90
2019-05-23T20:53:06.041Z,99.90
2019-05-23T20:55:35.234Z,99.90
2019-05-23T20:58:05.040Z,99.90
2019-05-23T21:00:35.862Z,99.90
2019-05-23T21:03:05.562Z,99.90
2019-05-23T21:05:34.489Z,99.90
2019-05-23T21:08:03.291Z,99.90
2019-05-23T21:10:43.781Z,99.90
2019-05-23T21:13:12.666Z,99.90
2019-05-23T21:15:41.319Z,99.90
2019-05-23T21:18:10.021Z,99.90
2019-05-23T21:20:38.651Z,99.90
2019-05-23T21:23:07.413Z,99.90
2019-05-23T21:25:37.707Z,99.90
2019-05-23T21:28:06.581Z,99.90
2019-05-23T21:30:35.242Z,99.90
2019-05-23T21:33:05.173Z,99.90
2019-05-23T21:35:33.785Z,99.90
2019-05-23T21:38:02.474Z,99.90
2019-05-23T21:40:36.669Z,99.90
2019-05-23T21:43:05.797Z,99.90
2019-05-23T21:45:34.957Z,99.90
2019-05-23T21:48:03.931Z,99.90
2019-05-23T21:50:32.901Z,99.90
2019-05-23T21:53:01.726Z,99.90
2019-05-23T21:55:43.568Z,99.90
2019-05-23T21:58:13.585Z,99.90
2019-05-23T22:01:01.487Z,99.90
2019-05-23T22:03:32.210Z,99.90
2019-05-23T22:06:01.320Z,99.90
2019-05-23T22:08:29.880Z,99.90
2019-05-23T22:10:58.621Z,99.90
2019-05-23T22:13:27.455Z,99.90
2019-05-23T22:15:59.027Z,99.90
2019-05-23T22:18:27.836Z,99.90
2019-05-23T22:20:56.398Z,99.90
2019-05-23T22:23:24.975Z,99.90
2019-05-23T22:25:53.622Z,99.90
2019-05-23T22:28:22.763Z,99.90
2019-05-23T22:30:51.731Z,99.90
2019-05-23T22:33:21.913Z,99.90
2019-05-23T22:35:50.938Z,99.90
2019-05-23T22:38:20.150Z,99.90
2019-05-23T22:40:48.715Z,99.90
2019-05-23T22:43:21.227Z,99.90
2019-05-23T22:45:48.020Z,99.90
2019-05-23T22:48:16.561Z,99.90
2019-05-23T22:50:45.069Z,99.90
2019-05-23T22:53:13.978Z,99.90
2019-05-23T22:55:42.630Z,99.90
2019-05-23T22:58:11.283Z,99.90
2019-05-23T23:00:41.470Z,99.90
2019-05-23T23:03:09.968Z,99.90
2019-05-23T23:05:38.560Z,99.90
2019-05-23T23:08:07.646Z,99.90
2019-05-23T23:10:37.149Z,99.90
2019-05-23T23:13:05.853Z,99.90
2019-05-23T23:15:34.634Z,99.90
2019-05-23T23:18:03.356Z,99.90
2019-05-23T23:20:32.318Z,99.90
2019-05-23T23:23:00.890Z,99.90
2019-05-23T23:25:29.458Z,99.90
2019-05-23T23:27:58.099Z,99.90
2019-05-23T23:30:34.362Z,99.90
2019-05-23T23:33:02.913Z,99.90
2019-05-23T23:35:31.449Z,99.90
2019-05-23T23:37:59.977Z,99.90
2019-05-23T23:40:28.876Z,99.90
2019-05-23T23:42:57.467Z,99.90
2019-05-23T23:45:45.161Z,99.90
2019-05-23T23:48:31.549Z,99.90
2019-05-23T23:51:18.009Z,99.90
2019-05-23T23:54:04.862Z,99.90
2019-05-23T23:56:51.552Z,99.90
2019-05-23T23:59:19.407Z,99.90
